Time;durP1;ratioP1;P1;durP2;ratioP2;P2;SDS_P1;SDS_P2;PMS_P1;PMS_P2;Temp;Humidity;BMP_temperature;BMP_pressure;BME280_temperature;BME280_humidity;BME280_pressure;Samples;Min_cycle;Max_cycle;Signal;HPM_P1;HPM_P2
2023/08/24 00:01:24;;;;;;;6.55;5.95;;;;;;;21.65;100.00;98272.03;5052331;28;20217;-73
2023/08/24 00:03:51;;;;;;;8.45;6.38;;;;;;;21.61;100.00;98274.50;5052349;28;20665;-73
2023/08/24 00:06:17;;;;;;;9.25;6.00;;;;;;;21.51;100.00;98273.78;5053053;28;20564;-73
2023/08/24 00:08:44;;;;;;;8.73;5.90;;;;;;;21.49;100.00;98263.28;5051671;28;20236;-73
2023/08/24 00:11:14;;;;;;;7.60;5.67;;;;;;;21.49;100.00;98282.22;5052458;28;20672;-73
2023/08/24 00:13:48;;;;;;;7.70;5.77;;;;;;;21.44;100.00;98276.81;5053109;28;20209;-73
2023/08/24 00:16:15;;;;;;;8.03;5.70;;;;;;;21.35;100.00;98281.22;5052931;28;20248;-73
2023/08/24 00:18:42;;;;;;;6.83;6.13;;;;;;;21.33;100.00;98280.72;5051890;28;20240;-73
2023/08/24 00:21:09;;;;;;;10.07;6.17;;;;;;;21.26;100.00;98276.72;5052886;28;20201;-73
2023/08/24 00:23:35;;;;;;;6.50;5.80;;;;;;;21.18;100.00;98278.13;5053265;28;20205;-73
2023/08/24 00:26:01;;;;;;;8.20;5.97;;;;;;;21.25;100.00;98280.50;5052023;28;20263;-73
2023/08/24 00:28:28;;;;;;;6.93;6.23;;;;;;;21.09;100.00;98274.41;5052140;28;20235;-73
2023/08/24 00:30:54;;;;;;;6.87;6.17;;;;;;;21.01;100.00;98269.56;5052758;28;20668;-73
2023/08/24 00:33:20;;;;;;;7.90;5.70;;;;;;;20.94;100.00;98260.97;5052842;28;20209;-73
2023/08/24 00:35:47;;;;;;;9.87;6.10;;;;;;;20.99;100.00;98252.84;5053334;28;20209;-73
2023/08/24 00:38:14;;;;;;;9.60;6.40;;;;;;;21.00;100.00;98248.22;5052217;28;20204;-73
2023/08/24 00:40:43;;;;;;;8.87;6.40;;;;;;;21.04;100.00;98252.81;5052425;28;20219;-73
2023/08/24 00:43:10;;;;;;;9.60;6.57;;;;;;;21.08;100.00;98247.63;5052404;28;20334;-73
2023/08/24 00:45:36;;;;;;;7.17;5.97;;;;;;;21.06;100.00;98242.50;5054973;28;20205;-73
2023/08/24 00:48:04;;;;;;;10.07;6.80;;;;;;;21.04;100.00;98244.69;5037187;28;20777;-73
2023/08/24 00:50:30;;;;;;;8.23;6.60;;;;;;;21.08;100.00;98236.81;5056302;28;20724;-73
2023/08/24 00:52:57;;;;;;;7.30;6.10;;;;;;;20.99;100.00;98243.91;5056577;28;20212;-73
2023/08/24 00:55:23;;;;;;;7.03;6.33;;;;;;;21.00;100.00;98243.63;5056300;28;20216;-73
2023/08/24 00:57:51;;;;;;;8.80;6.43;;;;;;;20.90;100.00;98242.88;5056491;28;20680;-73
2023/08/24 01:00:18;;;;;;;9.37;6.50;;;;;;;20.91;100.00;98236.41;5056031;28;20304;-73
2023/08/24 01:02:44;;;;;;;7.37;6.67;;;;;;;20.92;100.00;98236.13;5056001;28;20213;-73
2023/08/24 01:05:11;;;;;;;7.00;6.03;;;;;;;20.98;100.00;98228.78;5056430;28;20224;-73
2023/08/24 01:07:40;;;;;;;6.87;6.13;;;;;;;20.93;100.00;98223.44;5054976;28;20228;-73
2023/08/24 01:10:07;;;;;;;7.33;6.63;;;;;;;20.95;100.00;98223.94;5054908;28;20647;-73
2023/08/24 01:12:50;;;;;;;7.30;6.60;;;;;;;20.93;100.00;98220.72;5037649;28;20201;-73
2023/08/24 01:15:36;;;;;;;8.43;6.40;;;;;;;20.92;100.00;98219.91;5056110;28;20277;-73
2023/08/24 01:18:07;;;;;;;9.53;6.37;;;;;;;20.90;100.00;98218.53;5054889;28;20185;-73
2023/08/24 01:20:36;;;;;;;8.20;6.23;;;;;;;20.86;100.00;98223.72;5055903;28;20595;-73
2023/08/24 01:23:19;;;;;;;7.80;6.90;;;;;;;20.81;100.00;98218.34;5038655;28;20623;-73
2023/08/24 01:26:09;;;;;;;6.70;6.00;;;;;;;20.85;100.00;98223.97;5038534;28;20189;-73
2023/08/24 01:28:37;;;;;;;7.10;6.10;;;;;;;20.77;100.00;98213.75;5055925;28;20233;-73
2023/08/24 01:31:05;;;;;;;7.10;6.30;;;;;;;20.79;100.00;98211.59;5056052;28;20307;-73
2023/08/24 01:33:32;;;;;;;7.83;6.97;;;;;;;20.79;100.00;98212.38;5055906;28;20267;-73
2023/08/24 01:35:58;;;;;;;7.47;6.60;;;;;;;20.77;100.00;98211.06;5055941;28;20215;-73
2023/08/24 01:38:25;;;;;;;8.47;6.57;;;;;;;20.72;100.00;98219.19;5055585;28;20205;-73
2023/08/24 01:41:13;;;;;;;8.87;6.90;;;;;;;20.72;100.00;98216.50;5055505;28;20316;-73
2023/08/24 01:43:41;;;;;;;10.73;6.77;;;;;;;20.62;100.00;98211.16;5055830;28;20303;-73
2023/08/24 01:46:08;;;;;;;7.50;6.67;;;;;;;20.60;100.00;98221.41;5055711;28;20201;-73
2023/08/24 01:48:37;;;;;;;8.80;6.43;;;;;;;20.57;100.00;98211.19;5055212;28;20731;-73
2023/08/24 01:51:04;;;;;;;8.40;6.50;;;;;;;20.42;100.00;98214.78;5055636;28;20205;-74
2023/08/24 01:53:32;;;;;;;7.63;6.83;;;;;;;20.45;100.00;98210.72;5055674;28;20209;-73
2023/08/24 01:55:58;;;;;;;8.87;6.67;;;;;;;20.38;100.00;98218.28;5055126;28;20259;-73
2023/08/24 01:58:25;;;;;;;7.50;6.77;;;;;;;20.42;100.00;98216.66;5054756;28;20212;-73
2023/08/24 02:00:51;;;;;;;7.17;6.47;;;;;;;20.42;100.00;98224.75;5055560;28;20215;-73
2023/08/24 02:03:17;;;;;;;8.67;6.57;;;;;;;20.48;100.00;98215.56;5055400;28;20240;-73
2023/08/24 02:05:44;;;;;;;8.20;6.57;;;;;;;20.49;100.00;98215.28;5055428;28;20201;-73
2023/08/24 02:08:09;;;;;;;8.00;7.20;;;;;;;20.51;100.00;98223.09;5055298;28;20222;-73
2023/08/24 02:10:36;;;;;;;7.40;6.70;;;;;;;20.42;100.00;98225.56;5055229;28;20222;-73
2023/08/24 02:13:02;;;;;;;8.80;6.80;;;;;;;20.44;100.00;98218.00;5055271;28;20204;-73
2023/08/24 02:15:28;;;;;;;8.80;6.57;;;;;;;20.43;100.00;98221.78;5055376;28;20232;-73
2023/08/24 02:17:56;;;;;;;9.33;6.73;;;;;;;20.46;100.00;98215.84;5055218;28;20203;-73
2023/08/24 02:20:22;;;;;;;9.70;6.40;;;;;;;20.37;100.00;98225.59;5055075;28;20311;-73
2023/08/24 02:22:49;;;;;;;10.07;7.37;;;;;;;20.45;100.00;98214.22;5054879;28;20205;-73
2023/08/24 02:25:15;;;;;;;9.70;7.17;;;;;;;20.38;100.00;98208.31;5054807;28;20216;-73
2023/08/24 02:27:41;;;;;;;7.30;6.60;;;;;;;20.32;100.00;98216.72;5054979;28;20232;-73
2023/08/24 02:30:08;;;;;;;8.83;6.17;;;;;;;20.34;100.00;98223.44;5054750;28;20225;-73
2023/08/24 02:32:35;;;;;;;7.13;6.43;;;;;;;20.36;100.00;98224.00;5055063;28;20209;-73
2023/08/24 02:35:01;;;;;;;7.83;6.97;;;;;;;20.34;100.00;98219.97;5054889;28;20241;-73
2023/08/24 02:37:27;;;;;;;7.43;6.37;;;;;;;20.28;100.00;98210.25;5054477;28;20210;-73
2023/08/24 02:39:54;;;;;;;8.10;6.67;;;;;;;20.35;100.00;98213.47;5054194;28;20233;-73
2023/08/24 02:42:20;;;;;;;7.30;6.40;;;;;;;20.39;100.00;98207.22;5054444;28;20678;-73
2023/08/24 02:44:46;;;;;;;9.63;6.97;;;;;;;20.26;100.00;98209.72;5054307;28;20576;-73
2023/08/24 02:47:14;;;;;;;8.77;7.10;;;;;;;20.27;100.00;98203.22;5054429;28;20289;-73
2023/08/24 02:49:41;;;;;;;10.93;6.93;;;;;;;20.27;100.00;98208.63;5054328;28;20265;-73
2023/08/24 02:52:07;;;;;;;7.67;6.97;;;;;;;20.26;100.00;98198.91;5054474;28;20211;-73
2023/08/24 02:54:33;;;;;;;7.53;6.43;;;;;;;20.21;100.00;98204.34;5054096;28;20668;-73
2023/08/24 02:57:00;;;;;;;7.17;6.23;;;;;;;20.18;100.00;98203.00;5054500;28;20209;-73
2023/08/24 02:59:26;;;;;;;7.40;6.70;;;;;;;20.23;100.00;98205.69;5054328;28;20232;-73
2023/08/24 03:01:53;;;;;;;7.80;7.03;;;;;;;20.27;100.00;98197.84;5054239;28;20208;-73
2023/08/24 03:04:19;;;;;;;8.10;7.37;;;;;;;20.28;100.00;98199.44;5054181;28;20208;-73
2023/08/24 03:06:46;;;;;;;8.63;6.90;;;;;;;20.26;100.00;98204.31;5054216;28;20205;-73
2023/08/24 03:09:13;;;;;;;7.60;6.80;;;;;;;20.21;100.00;98194.34;5053929;28;20239;-73
2023/08/24 03:11:39;;;;;;;10.10;7.07;;;;;;;20.24;100.00;98187.56;5054098;28;20250;-73
2023/08/24 03:14:05;;;;;;;7.27;6.60;;;;;;;20.18;100.00;98183.28;5053773;28;20258;-73
2023/08/24 03:16:32;;;;;;;9.00;7.40;;;;;;;20.14;100.00;98188.44;5054002;28;20239;-73
2023/08/24 03:18:58;;;;;;;8.80;7.33;;;;;;;20.08;100.00;98192.22;5053881;28;20244;-73
2023/08/24 03:21:25;;;;;;;6.87;6.17;;;;;;;20.02;100.00;98187.13;5053788;28;20216;-73
2023/08/24 03:23:51;;;;;;;7.73;7.03;;;;;;;20.03;100.00;98196.84;5036095;28;20216;-73
2023/08/24 03:26:20;;;;;;;7.93;6.17;;;;;;;20.04;100.00;98185.75;5054023;28;20216;-73
2023/08/24 03:28:46;;;;;;;7.30;6.60;;;;;;;19.97;100.00;98187.13;5053765;28;20233;-73
2023/08/24 03:31:12;;;;;;;7.20;6.53;;;;;;;20.03;100.00;98189.53;5053441;28;20205;-73
2023/08/24 03:33:39;;;;;;;8.43;6.63;;;;;;;20.02;100.00;98189.81;5053477;28;20205;-73
2023/08/24 03:36:05;;;;;;;7.00;6.30;;;;;;;19.96;100.00;98186.31;5053660;28;20212;-73
2023/08/24 03:38:31;;;;;;;7.73;6.00;;;;;;;19.95;100.00;98187.41;5053611;28;20231;-73
2023/08/24 03:41:02;;;;;;;7.43;6.73;;;;;;;19.92;100.00;98177.16;5052695;28;20209;-73
2023/08/24 03:43:29;;;;;;;6.67;5.93;;;;;;;19.92;100.00;98176.34;5053134;28;20670;-73
2023/08/24 03:45:56;;;;;;;6.93;6.30;;;;;;;19.92;100.00;98166.38;5053401;28;20209;-73
2023/08/24 03:48:22;;;;;;;9.23;6.77;;;;;;;19.98;100.00;98154.47;5053128;28;20233;-73
2023/08/24 03:50:48;;;;;;;8.13;6.30;;;;;;;20.06;100.00;98147.69;5054305;28;20205;-73
2023/08/24 03:53:15;;;;;;;8.20;7.00;;;;;;;20.09;100.00;98155.25;5053542;28;20205;-73
2023/08/24 03:55:41;;;;;;;9.07;7.03;;;;;;;20.09;100.00;98149.88;5053621;28;20201;-73
2023/08/24 03:58:07;;;;;;;9.00;6.63;;;;;;;20.10;100.00;98154.16;5053653;28;20205;-73
2023/08/24 04:00:34;;;;;;;7.33;6.53;;;;;;;20.13;100.00;98145.53;5051851;28;20217;-73
2023/08/24 04:03:00;;;;;;;7.80;6.47;;;;;;;20.14;100.00;98144.44;5052186;28;20205;-73
2023/08/24 04:05:27;;;;;;;7.90;6.97;;;;;;;20.16;100.00;98143.06;5053031;28;20205;-73
2023/08/24 04:07:54;;;;;;;7.97;7.20;;;;;;;20.16;100.00;98134.19;5052959;28;20240;-73
2023/08/24 04:10:20;;;;;;;7.40;6.60;;;;;;;20.16;100.00;98140.38;5052755;28;20217;-74
2023/08/24 04:12:46;;;;;;;7.93;7.10;;;;;;;20.21;100.00;98126.06;5052892;28;20193;-76
2023/08/24 04:15:13;;;;;;;7.50;6.77;;;;;;;20.27;100.00;98133.03;5051864;28;20706;-76
2023/08/24 04:17:39;;;;;;;9.53;7.63;;;;;;;20.31;100.00;98134.09;5052302;28;20663;-76
2023/08/24 04:20:07;;;;;;;8.23;7.20;;;;;;;20.39;100.00;98133.50;5053558;28;20239;-76
2023/08/24 04:22:34;;;;;;;10.97;7.50;;;;;;;20.39;100.00;98128.91;5056154;28;20250;-76
2023/08/24 04:25:01;;;;;;;8.30;7.50;;;;;;;20.37;100.00;98127.56;5054127;28;20193;-76
2023/08/24 04:27:27;;;;;;;8.60;7.63;;;;;;;20.41;100.00;98121.34;5057746;28;20231;-76
2023/08/24 04:29:53;;;;;;;9.37;7.67;;;;;;;20.41;100.00;98126.75;5057626;28;20256;-76
2023/08/24 04:32:20;;;;;;;7.73;7.03;;;;;;;20.42;100.00;98122.13;5056373;28;20577;-76
2023/08/24 04:34:46;;;;;;;8.60;7.33;;;;;;;20.39;100.00;98123.50;5056957;28;20201;-76
2023/08/24 04:37:12;;;;;;;9.30;7.30;;;;;;;20.37;100.00;98122.16;5058719;28;20201;-76
2023/08/24 04:39:39;;;;;;;12.10;8.03;;;;;;;20.38;100.00;98115.66;5056796;28;20236;-76
2023/08/24 04:42:06;;;;;;;12.20;8.67;;;;;;;20.35;100.00;98113.56;5056967;28;20209;-76
2023/08/24 04:44:32;;;;;;;12.50;8.33;;;;;;;20.34;100.00;98114.66;5057023;28;20701;-76
2023/08/24 04:46:59;;;;;;;11.20;9.13;;;;;;;20.32;100.00;98112.22;5055811;28;20197;-76
2023/08/24 04:49:25;;;;;;;11.87;8.83;;;;;;;20.32;100.00;98108.69;5056613;28;20232;-76
2023/08/24 04:51:51;;;;;;;11.77;8.60;;;;;;;20.34;100.00;98111.94;5055878;28;20205;-76
2023/08/24 04:54:18;;;;;;;8.77;7.83;;;;;;;20.33;100.00;98113.00;5054930;28;20201;-75
2023/08/24 04:56:44;;;;;;;10.77;8.67;;;;;;;20.35;100.00;98118.94;5054272;28;20212;-76
2023/08/24 04:59:11;;;;;;;8.77;7.50;;;;;;;20.35;100.00;98121.66;5054220;28;20228;-76
2023/08/24 05:01:37;;;;;;;9.53;7.27;;;;;;;20.35;100.00;98122.44;5055129;28;20299;-76
2023/08/24 05:04:04;;;;;;;9.17;6.83;;;;;;;20.28;100.00;98121.16;5055598;28;20632;-76
2023/08/24 05:06:30;;;;;;;9.67;6.73;;;;;;;20.40;100.00;98119.72;5055030;28;20201;-76
2023/08/24 05:08:57;;;;;;;10.03;7.70;;;;;;;20.45;100.00;98110.78;5056259;28;20235;-76
2023/08/24 05:11:26;;;;;;;10.27;7.43;;;;;;;20.44;100.00;98104.56;5056463;28;20209;-76
2023/08/24 05:13:52;;;;;;;11.33;6.77;;;;;;;20.52;100.00;98103.97;5056545;28;20217;-76
2023/08/24 05:16:18;;;;;;;8.50;7.70;;;;;;;20.51;100.00;98093.44;5056056;28;20205;-76
2023/08/24 05:18:45;;;;;;;9.13;7.63;;;;;;;20.51;100.00;98090.75;5056382;28;20225;-76
2023/08/24 05:21:12;;;;;;;9.73;7.73;;;;;;;20.52;100.00;98087.75;5056118;28;20221;-74
2023/08/24 05:23:38;;;;;;;8.43;7.30;;;;;;;20.47;100.00;98081.59;5056010;28;20209;-74
2023/08/24 05:26:05;;;;;;;8.73;7.13;;;;;;;20.49;100.00;98077.53;5055939;28;20211;-74
2023/08/24 05:28:32;;;;;;;10.07;7.87;;;;;;;20.49;100.00;98079.44;5070086;28;20217;-73
2023/08/24 05:30:59;;;;;;;12.87;7.43;;;;;;;20.54;100.00;98082.91;5067166;28;20193;-73
2023/08/24 05:33:26;;;;;;;9.70;7.97;;;;;;;20.58;100.00;98077.72;5074674;28;20201;-73
2023/08/24 05:35:53;;;;;;;13.67;8.13;;;;;;;20.63;100.00;98081.22;5075725;28;20622;-73
2023/08/24 05:38:20;;;;;;;12.27;8.03;;;;;;;20.62;100.00;98070.69;5075027;28;20705;-74
2023/08/24 05:40:50;;;;;;;11.40;8.40;;;;;;;20.59;100.00;98072.06;5074609;28;20216;-73
2023/08/24 05:43:16;;;;;;;11.20;7.40;;;;;;;20.60;100.00;98070.16;5074254;28;20667;-74
2023/08/24 05:45:44;;;;;;;10.37;8.77;;;;;;;20.60;100.00;98073.66;5075505;28;20212;-73
2023/08/24 05:48:11;;;;;;;12.97;7.63;;;;;;;20.79;100.00;98068.38;5075251;28;20201;-74
2023/08/24 05:50:38;;;;;;;9.63;7.50;;;;;;;20.74;100.00;98074.63;5075381;28;20226;-74
2023/08/24 05:53:05;;;;;;;13.20;8.57;;;;;;;20.84;100.00;98074.53;5075034;28;20254;-74
2023/08/24 05:55:31;;;;;;;12.63;8.30;;;;;;;20.93;100.00;98069.38;5075444;28;20205;-73
2023/08/24 05:57:57;;;;;;;8.30;7.30;;;;;;;20.91;100.00;98077.75;5075016;28;20215;-73
2023/08/24 06:00:24;;;;;;;8.23;7.00;;;;;;;20.93;100.00;98080.97;5074857;28;20220;-73
2023/08/24 06:02:50;;;;;;;7.10;6.40;;;;;;;21.03;100.00;98078.16;5075203;28;20212;-74
2023/08/24 06:05:17;;;;;;;11.17;6.97;;;;;;;21.06;100.00;98074.91;5074990;28;20205;-74
2023/08/24 06:07:45;;;;;;;8.97;7.13;;;;;;;21.12;100.00;98075.66;5074666;28;20204;-74
2023/08/24 06:10:12;;;;;;;9.13;6.87;;;;;;;21.15;100.00;98073.19;5075248;28;20232;-73
2023/08/24 06:12:38;;;;;;;8.10;6.70;;;;;;;21.21;100.00;98071.25;5075112;28;20208;-73
2023/08/24 06:15:08;;;;;;;9.27;6.33;;;;;;;21.29;100.00;98087.63;5074533;28;20208;-73
2023/08/24 06:17:36;;;;;;;7.33;6.57;;;;;;;21.37;100.00;98080.78;5074729;28;20196;-73
2023/08/24 06:20:09;;;;;;;10.07;7.00;;;;;;;21.44;100.00;98079.34;5074543;28;20232;-73
2023/08/24 06:22:36;;;;;;;9.27;6.30;;;;;;;21.55;100.00;98088.97;5075277;28;20189;-73
2023/08/24 06:25:02;;;;;;;6.60;5.90;;;;;;;21.69;100.00;98089.94;5074359;28;20208;-73
2023/08/24 06:27:29;;;;;;;11.00;6.60;;;;;;;21.82;100.00;98088.41;5074460;28;20254;-73
2023/08/24 06:29:55;;;;;;;7.57;6.00;;;;;;;21.72;100.00;98093.94;5074055;28;20238;-73
2023/08/24 06:32:21;;;;;;;9.67;6.17;;;;;;;21.78;100.00;98088.19;5074662;28;20205;-73
2023/08/24 06:34:48;;;;;;;6.50;5.80;;;;;;;21.71;100.00;98101.25;5074468;28;20240;-73
2023/08/24 06:37:14;;;;;;;8.10;5.47;;;;;;;21.87;100.00;98099.16;5074307;28;20207;-73
2023/08/24 06:39:40;;;;;;;9.43;5.90;;;;;;;22.01;100.00;98111.72;5073811;28;20710;-74
2023/08/24 06:42:07;;;;;;;11.05;5.97;;;;;;;22.06;100.00;98111.66;5074812;28;20680;-74
2023/08/24 06:44:34;;;;;;;8.55;5.72;;;;;;;22.07;100.00;98129.50;5074128;28;20253;-74
2023/08/24 06:47:01;;;;;;;11.95;6.40;;;;;;;22.07;100.00;98134.91;5074271;28;20568;-74
2023/08/24 06:49:27;;;;;;;11.40;6.33;;;;;;;22.10;100.00;98145.16;5074046;28;20297;-73
2023/08/24 06:51:53;;;;;;;8.63;5.95;;;;;;;22.05;100.00;98156.06;5073972;28;20212;-73
2023/08/24 06:54:20;;;;;;;9.45;5.78;;;;;;;22.09;100.00;98165.22;5074140;28;20205;-73
2023/08/24 06:56:46;;;;;;;6.68;5.78;;;;;;;22.09;100.00;98180.66;5074044;28;20201;-73
2023/08/24 06:59:13;;;;;;;10.38;6.53;;;;;;;22.40;100.00;98173.75;5074026;28;20221;-73
2023/08/24 07:01:40;;;;;;;7.63;6.13;;;;;;;22.37;100.00;98171.63;5073591;28;20227;-73
2023/08/24 07:04:07;;;;;;;7.93;5.90;;;;;;;22.45;100.00;98166.41;5073775;28;20254;-73
2023/08/24 07:06:36;;;;;;;6.60;5.28;;;;;;;22.34;100.00;98156.75;5073491;28;20660;-73
2023/08/24 07:09:06;;;;;;;8.20;5.80;;;;;;;22.42;100.00;98149.88;5073627;28;20236;-73
2023/08/24 07:11:32;;;;;;;11.02;5.65;;;;;;;22.61;100.00;98135.25;5073699;28;20201;-73
2023/08/24 07:13:59;;;;;;;11.18;6.50;;;;;;;22.78;100.00;98113.88;5073632;28;20215;-73
2023/08/24 07:16:25;;;;;;;8.25;6.20;;;;;;;22.87;100.00;98119.41;5073447;28;20205;-73
2023/08/24 07:18:52;;;;;;;9.13;7.05;;;;;;;22.96;100.00;98125.75;5073809;28;20231;-73
2023/08/24 07:21:18;;;;;;;9.73;5.85;;;;;;;23.00;100.00;98115.94;5073683;28;20212;-73
2023/08/24 07:23:44;;;;;;;9.65;6.30;;;;;;;23.16;100.00;98111.88;5073567;28;20208;-73
2023/08/24 07:26:11;;;;;;;11.27;6.50;;;;;;;23.13;100.00;98098.91;5073347;28;20575;-73
2023/08/24 07:28:37;;;;;;;12.82;6.60;;;;;;;23.02;100.00;98109.13;5072935;28;20229;-73
2023/08/24 07:31:11;;;;;;;8.90;6.47;;;;;;;22.98;100.00;98108.09;5073193;28;20212;-73
2023/08/24 07:33:38;;;;;;;8.73;6.32;;;;;;;23.03;100.00;98115.34;5073553;28;20185;-75
2023/08/24 07:36:06;;;;;;;7.10;6.22;;;;;;;22.90;100.00;98119.66;5073194;28;20691;-75
2023/08/24 07:38:33;;;;;;;9.15;6.20;;;;;;;23.16;99.54;98118.09;5073192;28;20578;-75
2023/08/24 07:40:59;;;;;;;9.18;5.60;;;;;;;23.27;99.89;98116.84;5073007;28;20204;-75
2023/08/24 07:43:26;;;;;;;7.65;5.30;;;;;;;23.28;97.10;98117.63;5073476;28;20211;-75
2023/08/24 07:45:52;;;;;;;6.40;5.18;;;;;;;23.15;96.64;98118.41;5073403;28;20230;-75
2023/08/24 07:48:19;;;;;;;8.73;5.25;;;;;;;23.31;98.40;98103.50;5073131;28;20341;-75
2023/08/24 07:50:45;;;;;;;8.07;4.40;;;;;;;23.50;94.87;98106.94;5072531;28;20591;-74
2023/08/24 07:53:12;;;;;;;8.05;4.38;;;;;;;23.46;93.18;98101.31;5073216;28;20309;-74
2023/08/24 07:55:38;;;;;;;6.70;5.10;;;;;;;23.55;94.17;98109.53;5072428;28;20216;-74
2023/08/24 07:58:04;;;;;;;6.32;4.70;;;;;;;23.53;94.23;98111.75;5072930;28;20208;-75
2023/08/24 08:00:31;;;;;;;5.40;4.30;;;;;;;23.77;94.86;98115.06;5072876;28;20224;-75
2023/08/24 08:02:57;;;;;;;5.70;3.80;;;;;;;23.88;90.67;98116.50;5073239;28;20236;-72
2023/08/24 08:05:24;;;;;;;7.93;4.10;;;;;;;23.84;90.34;98120.91;5073266;28;20208;-72
2023/08/24 08:07:51;;;;;;;5.30;3.78;;;;;;;23.89;91.44;98124.34;5073193;28;20208;-72
2023/08/24 08:10:20;;;;;;;4.40;4.00;;;;;;;24.18;88.80;98135.72;5073061;28;20231;-72
2023/08/24 08:12:46;;;;;;;6.90;4.13;;;;;;;24.40;88.74;98129.50;5073144;28;20291;-72
2023/08/24 08:15:12;;;;;;;7.47;4.30;;;;;;;24.35;89.36;98126.91;5073867;28;20280;-72
2023/08/24 08:17:39;;;;;;;5.47;4.20;;;;;;;23.87;88.48;98134.69;5073071;28;20204;-72
2023/08/24 08:20:06;;;;;;;5.00;4.13;;;;;;;23.92;91.31;98121.03;5072744;28;20703;-72
2023/08/24 08:22:35;;;;;;;5.03;4.38;;;;;;;23.98;88.46;98127.19;5072849;28;20656;-72
2023/08/24 08:25:02;;;;;;;6.32;4.15;;;;;;;24.07;91.11;98118.03;5073051;28;20295;-72
2023/08/24 08:27:28;;;;;;;4.68;4.13;;;;;;;24.33;89.57;98107.41;5072959;28;20200;-73
2023/08/24 08:29:55;;;;;;;7.95;4.10;;;;;;;24.45;88.80;98108.47;5072876;28;20232;-72
2023/08/24 08:32:21;;;;;;;5.25;4.18;;;;;;;24.50;87.18;98115.69;5073225;28;20270;-72
2023/08/24 08:34:48;;;;;;;7.28;4.35;;;;;;;24.65;87.20;98110.75;5072948;28;20205;-72
2023/08/24 08:37:15;;;;;;;7.22;4.22;;;;;;;24.90;87.04;98112.03;5072686;28;20205;-72
2023/08/24 08:39:41;;;;;;;5.72;4.32;;;;;;;24.90;84.86;98112.88;5071925;28;20799;-72
2023/08/24 08:42:15;;;;;;;6.45;4.57;;;;;;;24.95;84.24;98112.72;5073031;28;20251;-72
2023/08/24 08:44:43;;;;;;;6.60;4.65;;;;;;;25.16;85.68;98118.47;5072923;28;20193;-73
2023/08/24 08:47:12;;;;;;;5.57;4.05;;;;;;;25.18;83.39;98135.28;5072303;28;20602;-73
2023/08/24 08:49:40;;;;;;;9.25;4.15;;;;;;;25.37;83.12;98123.09;5072362;28;20224;-72
2023/08/24 08:52:07;;;;;;;4.35;3.80;;;;;;;25.24;83.13;98115.00;5072675;28;20573;-72
2023/08/24 08:54:33;;;;;;;7.65;3.90;;;;;;;25.15;81.56;98109.50;5072704;28;20209;-72
2023/08/24 08:57:01;;;;;;;4.68;4.15;;;;;;;25.35;81.46;98110.91;5072526;28;20205;-73
2023/08/24 08:59:31;;;;;;;6.40;4.20;;;;;;;25.48;81.04;98113.56;5072480;28;20303;-73
2023/08/24 09:02:00;;;;;;;8.63;4.78;;;;;;;25.56;81.51;98112.00;5072283;28;20211;-73
2023/08/24 09:04:28;;;;;;;4.72;3.90;;;;;;;25.54;80.81;98112.31;5072388;28;20212;-73
2023/08/24 09:06:56;;;;;;;5.97;3.88;;;;;;;25.92;79.16;98110.69;5074997;28;20251;-73
2023/08/24 09:09:23;;;;;;;5.63;3.70;;;;;;;25.84;78.34;98114.19;5076091;28;20224;-73
2023/08/24 09:11:51;;;;;;;5.63;3.40;;;;;;;26.06;76.67;98100.47;5075903;28;20204;-72
2023/08/24 09:14:17;;;;;;;4.30;3.70;;;;;;;25.65;78.38;98102.72;5076225;28;20211;-72
2023/08/24 09:16:44;;;;;;;7.70;3.92;;;;;;;25.92;77.85;98099.81;5076251;28;20255;-72
2023/08/24 09:19:14;;;;;;;4.38;3.75;;;;;;;26.19;78.84;98090.59;5075524;28;20704;-72
2023/08/24 09:21:41;;;;;;;8.70;4.13;;;;;;;26.36;77.36;98082.41;5075963;28;20232;-72
2023/08/24 09:24:09;;;;;;;6.38;3.90;;;;;;;26.29;77.65;98080.19;5075706;28;20208;-72
2023/08/24 09:26:42;;;;;;;6.00;3.88;;;;;;;26.44;76.56;98066.06;5075808;28;20219;-72
2023/08/24 09:29:16;;;;;;;4.35;3.90;;;;;;;26.50;77.92;98058.53;5075608;28;20224;-72
2023/08/24 09:31:44;;;;;;;4.47;4.05;;;;;;;26.63;77.02;98049.38;5075998;28;20245;-72
2023/08/24 09:34:10;;;;;;;7.00;3.80;;;;;;;26.76;75.72;98041.03;5075599;28;20205;-72
2023/08/24 09:36:39;;;;;;;9.93;4.60;;;;;;;26.68;76.39;98043.78;5075606;28;20207;-72
2023/08/24 09:39:06;;;;;;;6.18;4.05;;;;;;;26.77;76.30;98037.19;5075286;28;20236;-72
2023/08/24 09:41:40;;;;;;;7.70;4.18;;;;;;;27.00;76.55;98041.31;5075561;28;20235;-72
2023/08/24 09:44:07;;;;;;;6.13;4.30;;;;;;;27.12;74.43;98043.34;5075285;28;20283;-72
2023/08/24 09:46:34;;;;;;;5.45;4.20;;;;;;;26.83;75.70;98038.59;5075473;28;20216;-72
2023/08/24 09:49:01;;;;;;;8.05;4.35;;;;;;;27.10;76.33;98030.03;5075000;28;20228;-72
2023/08/24 09:51:29;;;;;;;8.23;4.70;;;;;;;27.48;76.23;98024.63;5075220;28;20224;-72
2023/08/24 09:53:59;;;;;;;7.65;4.80;;;;;;;27.41;73.02;98015.34;5075328;28;20587;-72
2023/08/24 09:56:29;;;;;;;7.80;4.50;;;;;;;27.10;75.82;98012.88;5067710;28;20201;-72
2023/08/24 09:59:01;;;;;;;4.47;4.07;;;;;;;27.44;74.72;97993.63;5061120;28;20588;-72
2023/08/24 10:01:28;;;;;;;4.50;3.78;;;;;;;27.72;74.57;97985.78;5064029;28;20212;-72
2023/08/24 10:03:58;;;;;;;6.20;4.20;;;;;;;27.82;73.54;97974.50;5042270;28;20202;-72
2023/08/24 10:06:29;;;;;;;6.28;4.18;;;;;;;27.90;73.08;97979.88;5055054;28;20201;-72
2023/08/24 10:09:04;;;;;;;6.90;4.10;;;;;;;28.06;73.86;97972.69;5055683;28;20236;-73
2023/08/24 10:11:32;;;;;;;6.40;4.43;;;;;;;28.15;72.31;97962.50;5055025;28;20295;-73
2023/08/24 10:14:07;;;;;;;5.15;4.30;;;;;;;28.26;71.76;97952.75;5054852;28;20205;-73
2023/08/24 10:16:36;;;;;;;5.80;4.30;;;;;;;28.54;71.30;97955.75;5054950;28;20258;-73
2023/08/24 10:19:03;;;;;;;6.82;4.57;;;;;;;28.76;68.88;97956.13;5054062;28;20231;-73
2023/08/24 10:21:30;;;;;;;9.30;4.65;;;;;;;28.48;70.16;97949.66;5054699;28;20203;-73
2023/08/24 10:23:58;;;;;;;7.57;4.20;;;;;;;28.80;70.96;97954.31;5054948;28;20221;-72
2023/08/24 10:26:25;;;;;;;5.03;4.50;;;;;;;28.60;71.72;97941.50;5059437;28;20205;-72
2023/08/24 10:28:52;;;;;;;4.88;4.20;;;;;;;28.92;70.37;97926.97;5054455;28;20221;-72
2023/08/24 10:31:19;;;;;;;6.20;4.80;;;;;;;29.22;68.74;97939.38;5055337;28;20220;-72
2023/08/24 10:33:47;;;;;;;5.65;4.25;;;;;;;29.12;68.96;97944.47;5054235;28;20217;-72
2023/08/24 10:36:14;;;;;;;5.25;4.75;;;;;;;28.56;70.66;97934.31;5053580;28;20567;-72
2023/08/24 10:38:42;;;;;;;10.13;4.63;;;;;;;28.62;69.53;97928.28;5054022;28;20231;-72
2023/08/24 10:41:08;;;;;;;7.60;4.32;;;;;;;28.83;69.82;97920.00;5054321;28;20201;-72
2023/08/24 10:43:38;;;;;;;7.47;4.28;;;;;;;29.08;70.98;97922.44;5054402;28;20212;-72
2023/08/24 10:46:12;;;;;;;5.72;4.80;;;;;;;29.27;69.71;97919.16;5055343;28;20206;-72
2023/08/24 10:48:41;;;;;;;5.85;4.40;;;;;;;29.43;68.13;97914.59;5054341;28;20229;-73
2023/08/24 10:51:25;;;;;;;8.13;4.95;;;;;;;29.27;69.38;97908.19;5054333;28;20224;-73
2023/08/24 10:53:55;;;;;;;5.78;4.45;;;;;;;29.46;70.96;97892.78;5054348;28;20280;-73
2023/08/24 10:56:21;;;;;;;6.50;4.70;;;;;;;29.61;70.01;97892.09;5053978;28;20269;-73
2023/08/24 10:59:08;;;;;;;5.50;4.03;;;;;;;29.72;68.75;97882.25;5054115;28;20235;-73
2023/08/24 11:01:39;;;;;;;5.72;4.63;;;;;;;29.07;69.42;97879.78;5053489;28;20198;-73
2023/08/24 11:04:06;;;;;;;8.80;4.55;;;;;;;29.83;69.24;97871.56;5055179;28;20375;-73
2023/08/24 11:06:33;;;;;;;7.13;5.10;;;;;;;29.67;69.87;97866.03;5053804;28;20209;-74
2023/08/24 11:09:13;;;;;;;4.95;4.30;;;;;;;30.01;69.47;97868.22;5053583;28;20693;-73
2023/08/24 11:11:41;;;;;;;5.20;4.68;;;;;;;29.85;69.80;97859.13;5053495;28;20224;-73
2023/08/24 11:14:19;;;;;;;4.78;4.38;;;;;;;29.79;69.15;97870.69;5053954;28;20209;-73
2023/08/24 11:16:47;;;;;;;5.15;4.70;;;;;;;30.15;69.55;97871.38;5053826;28;20272;-73
2023/08/24 11:19:14;;;;;;;8.95;5.03;;;;;;;30.05;68.64;97862.81;5053825;28;20580;-73
2023/08/24 11:21:45;;;;;;;6.38;4.57;;;;;;;30.04;68.51;97862.03;5053816;28;20201;-73
2023/08/24 11:24:15;;;;;;;6.25;4.80;;;;;;;30.34;68.86;97857.00;5070593;28;20201;-73
2023/08/24 11:26:43;;;;;;;8.35;4.93;;;;;;;30.35;68.77;97859.41;5068733;28;20206;-73
2023/08/24 11:29:10;;;;;;;5.43;4.75;;;;;;;30.34;68.66;97846.03;5072117;28;20225;-73